createdAt,value
2018-02-14T00:03:16.829Z,7.17
2018-02-14T00:08:19.339Z,7.20
2018-02-14T00:13:20.684Z,7.07
2018-02-14T00:18:22.050Z,7.40
2018-02-14T00:23:23.483Z,7.70
2018-02-14T00:28:25.147Z,6.90
2018-02-14T00:33:26.623Z,8.03
2018-02-14T00:38:27.979Z,8.57
2018-02-14T00:43:29.316Z,8.40
2018-02-14T00:48:30.715Z,7.90
2018-02-14T00:53:32.078Z,7.37
2018-02-14T00:58:34.195Z,7.70
2018-02-14T01:03:35.728Z,8.30
2018-02-14T01:08:37.111Z,6.77
2018-02-14T01:13:38.455Z,9.03
2018-02-14T01:18:48.379Z,7.70
2018-02-14T01:23:49.726Z,7.43
2018-02-14T01:28:51.027Z,7.83
2018-02-14T01:33:53.223Z,7.87
2018-02-14T01:38:54.590Z,8.33
2018-02-14T01:43:55.926Z,8.07
2018-02-14T01:48:57.271Z,7.57
2018-02-14T01:53:58.615Z,8.47
2018-02-14T01:59:00.056Z,8.17
2018-02-14T02:04:01.392Z,7.67
2018-02-14T02:09:02.787Z,7.20
2018-02-14T02:14:04.150Z,7.80
2018-02-14T02:19:05.494Z,7.70
2018-02-14T02:24:06.863Z,7.20
2018-02-14T02:29:08.263Z,7.43
2018-02-14T02:34:09.589Z,7.40
2018-02-14T02:39:29.589Z,7.20
2018-02-14T02:44:31.061Z,7.70
2018-02-14T02:49:32.493Z,7.43
2018-02-14T02:54:33.818Z,7.00
2018-02-14T02:59:35.930Z,7.67
2018-02-14T03:04:38.051Z,7.63
2018-02-14T03:09:39.414Z,7.13
2018-02-14T03:14:40.756Z,6.17
2018-02-14T03:19:42.067Z,6.40
2018-02-14T03:24:43.391Z,7.13
2018-02-14T03:29:45.468Z,6.03
2018-02-14T03:34:46.874Z,7.50
2018-02-14T03:39:48.290Z,6.93
2018-02-14T03:44:49.662Z,8.67
2018-02-14T03:49:51.011Z,6.70
2018-02-14T03:54:52.378Z,6.73
2018-02-14T03:59:53.731Z,6.57
2018-02-14T04:04:55.088Z,6.97
2018-02-14T04:09:56.428Z,7.10
2018-02-14T04:14:58.558Z,7.30
2018-02-14T04:19:59.910Z,6.00
2018-02-14T04:25:01.260Z,6.83
2018-02-14T04:30:02.731Z,6.80
2018-02-14T04:35:04.185Z,6.37
2018-02-14T04:40:05.581Z,6.33
2018-02-14T04:45:07.699Z,6.10
2018-02-14T04:50:09.763Z,6.67
2018-02-14T04:55:11.136Z,7.10
2018-02-14T05:00:12.546Z,6.80
2018-02-14T05:05:14.454Z,6.53
2018-02-14T05:10:15.816Z,6.70
2018-02-14T05:15:17.220Z,5.90
2018-02-14T05:20:18.625Z,5.70
2018-02-14T05:25:20.565Z,5.70
2018-02-14T05:30:22.640Z,6.70
2018-02-14T05:35:23.978Z,6.60
2018-02-14T05:40:26.854Z,6.40
2018-02-14T05:45:28.287Z,6.70
2018-02-14T05:50:30.463Z,6.87
2018-02-14T05:55:31.775Z,7.73
2018-02-14T06:00:34.268Z,6.70
2018-02-14T06:05:35.739Z,7.70
2018-02-14T06:10:37.088Z,7.33
2018-02-14T06:15:38.662Z,6.97
2018-02-14T06:20:40.051Z,6.97
2018-02-14T06:25:42.191Z,7.40
2018-02-14T06:30:45.221Z,6.17
2018-02-14T06:35:47.529Z,7.30
2018-02-14T06:40:49.070Z,10.20
2018-02-14T06:45:50.520Z,14.77
2018-02-14T06:50:51.950Z,15.10
2018-02-14T06:55:53.327Z,10.13
2018-02-14T07:00:54.855Z,8.80
2018-02-14T07:05:56.191Z,9.20
2018-02-14T07:10:57.623Z,7.67
2018-02-14T07:15:59.031Z,7.17
2018-02-14T07:21:00.443Z,6.83
2018-02-14T07:26:02.888Z,7.20
2018-02-14T07:31:04.338Z,7.40
2018-02-14T07:36:06.487Z,6.30
2018-02-14T07:41:07.888Z,6.90
2018-02-14T07:46:09.298Z,5.10
2018-02-14T07:51:10.619Z,6.37
2018-02-14T07:56:12.737Z,5.20
2018-02-14T08:01:14.160Z,5.50
2018-02-14T08:06:15.498Z,5.70
2018-02-14T08:11:16.822Z,5.50
2018-02-14T08:16:18.132Z,5.90
2018-02-14T08:21:19.455Z,6.27
2018-02-14T08:26:20.917Z,5.40
2018-02-14T08:31:22.613Z,4.90
2018-02-14T08:36:23.957Z,5.03
2018-02-14T08:41:25.385Z,5.80
2018-02-14T08:46:28.766Z,5.50
2018-02-14T08:51:35.005Z,5.90
2018-02-14T08:56:37.534Z,5.90
2018-02-14T09:01:40.262Z,6.30
2018-02-14T09:06:42.734Z,5.50
2018-02-14T09:11:44.960Z,5.57
2018-02-14T09:16:46.398Z,6.20
2018-02-14T09:21:47.740Z,6.00
2018-02-14T09:26:50.005Z,7.10
2018-02-14T09:31:51.752Z,7.73
2018-02-14T09:36:53.138Z,5.87
2018-02-14T09:41:55.783Z,5.60
2018-02-14T09:46:57.166Z,5.50
2018-02-14T09:51:58.644Z,5.63
2018-02-14T09:57:00.886Z,4.53
2018-02-14T10:02:03.027Z,5.17
2018-02-14T10:07:04.481Z,5.27
2018-02-14T10:12:05.889Z,4.80
2018-02-14T10:17:07.338Z,4.90
2018-02-14T10:22:08.820Z,4.43
2018-02-14T10:27:11.053Z,5.17
2018-02-14T10:32:18.020Z,5.10
2018-02-14T10:37:19.347Z,4.63
2018-02-14T10:42:20.723Z,4.23
2018-02-14T10:47:22.117Z,5.03
2018-02-14T10:52:23.604Z,5.30
2018-02-14T10:57:24.918Z,7.30
2018-02-14T11:02:27.016Z,4.50
2018-02-14T11:07:28.366Z,4.87
2018-02-14T11:12:29.849Z,4.33
2018-02-14T11:17:31.811Z,4.60
2018-02-14T11:22:33.338Z,4.70
2018-02-14T11:27:35.428Z,4.50
2018-02-14T11:32:37.511Z,4.83
2018-02-14T11:37:39.042Z,5.30
2018-02-14T11:42:40.468Z,5.00
2018-02-14T11:47:41.824Z,4.60
2018-02-14T11:52:43.204Z,4.67
2018-02-14T11:57:44.598Z,4.60
2018-02-14T12:02:45.979Z,5.17
2018-02-14T12:07:48.072Z,4.93
2018-02-14T12:12:49.515Z,5.83
2018-02-14T12:17:51.156Z,5.23
2018-02-14T12:22:52.695Z,5.10
2018-02-14T12:27:54.024Z,5.13
2018-02-14T12:32:55.426Z,4.70
2018-02-14T12:37:56.791Z,4.60
2018-02-14T12:42:58.269Z,4.80
2018-02-14T12:47:59.739Z,4.50
2018-02-14T12:53:02.258Z,4.10
2018-02-14T12:58:03.727Z,4.43
2018-02-14T13:03:05.958Z,4.50
2018-02-14T13:08:07.560Z,5.10
2018-02-14T13:13:09.327Z,4.70
2018-02-14T13:18:12.244Z,4.60
2018-02-14T13:23:13.703Z,4.33
2018-02-14T13:28:15.125Z,4.70
2018-02-14T13:33:16.513Z,4.63
2018-02-14T13:38:17.947Z,4.67
2018-02-14T13:43:19.298Z,4.77
2018-02-14T13:48:20.666Z,5.33
2018-02-14T13:53:22.297Z,6.03
2018-02-14T13:58:24.389Z,5.77
2018-02-14T14:03:25.715Z,5.53
2018-02-14T14:08:27.081Z,5.80
2018-02-14T14:13:29.184Z,5.03
2018-02-14T14:18:30.533Z,5.07
2018-02-14T14:23:31.916Z,5.03
2018-02-14T14:28:33.288Z,5.40
2018-02-14T14:38:43.822Z,5.27
2018-02-14T14:43:45.178Z,5.10
2018-02-14T14:48:46.512Z,5.30
2018-02-14T14:53:48.649Z,6.43
2018-02-14T14:58:50.015Z,6.07
2018-02-14T15:03:52.131Z,6.10
2018-02-14T15:08:54.241Z,6.33
2018-02-14T15:13:56.405Z,5.20
2018-02-14T15:18:58.020Z,5.63
2018-02-14T15:23:59.339Z,5.73
2018-02-14T15:29:00.663Z,5.70
2018-02-14T15:34:02.076Z,6.10
2018-02-14T15:39:03.492Z,5.97
2018-02-14T15:44:04.860Z,5.90
2018-02-14T15:49:06.269Z,5.60
2018-02-14T15:54:08.371Z,6.27
2018-02-14T15:59:09.746Z,5.30
2018-02-14T16:04:11.067Z,5.80
2018-02-14T16:09:13.184Z,7.77
2018-02-14T16:14:14.532Z,7.13
2018-02-14T16:19:15.955Z,11.70
2018-02-14T16:24:18.057Z,14.63
2018-02-14T16:29:20.146Z,13.30
2018-02-14T16:34:21.528Z,19.53
2018-02-14T16:39:22.876Z,13.70
2018-02-14T16:44:24.246Z,36.03
2018-02-14T16:49:26.319Z,16.80
2018-02-14T16:54:27.700Z,19.60
2018-02-14T16:59:29.127Z,9.50
2018-02-14T17:04:31.190Z,10.60
2018-02-14T17:09:32.546Z,10.10
2018-02-14T17:14:33.897Z,10.80
2018-02-14T17:19:35.251Z,8.80
2018-02-14T17:24:36.653Z,9.77
2018-02-14T17:29:38.087Z,10.77
2018-02-14T17:34:40.160Z,11.80
2018-02-14T17:39:41.671Z,9.37
2018-02-14T17:44:43.115Z,11.50
2018-02-14T17:49:44.542Z,9.90
2018-02-14T17:54:45.943Z,9.10
2018-02-14T17:59:48.083Z,8.33
2018-02-14T18:04:49.455Z,8.03
2018-02-14T18:09:51.579Z,9.00
2018-02-14T18:14:53.679Z,8.90
2018-02-14T18:19:56.455Z,8.07
2018-02-14T18:24:58.701Z,12.30
2018-02-14T18:30:00.764Z,8.00
2018-02-14T18:35:02.198Z,8.03
2018-02-14T18:40:04.478Z,9.00
2018-02-14T18:45:05.878Z,8.90
2018-02-14T18:50:07.239Z,8.07
2018-02-14T18:55:08.623Z,7.67
2018-02-14T19:00:10.023Z,8.50
2018-02-14T19:05:11.640Z,7.97
2018-02-14T19:10:12.984Z,7.93
2018-02-14T19:15:14.710Z,8.17
2018-02-14T19:20:17.130Z,8.27
2018-02-14T19:25:21.243Z,8.23
2018-02-14T19:30:24.022Z,8.63
2018-02-14T19:35:26.205Z,9.33
2018-02-14T19:40:27.580Z,9.80
2018-02-14T19:45:30.090Z,10.00
2018-02-14T19:50:31.463Z,9.90
2018-02-14T19:55:33.611Z,9.50
2018-02-14T20:00:35.003Z,9.20
2018-02-14T20:05:36.404Z,8.93
2018-02-14T20:10:37.776Z,10.30
2018-02-14T20:15:39.165Z,17.20
2018-02-14T20:20:40.533Z,13.40
2018-02-14T20:25:42.551Z,11.33
2018-02-14T20:30:43.923Z,10.43
2018-02-14T20:35:46.731Z,10.27
2018-02-14T20:40:49.230Z,10.20
2018-02-14T20:45:50.556Z,9.50
2018-02-14T20:50:52.660Z,9.87
2018-02-14T20:55:55.896Z,9.27
2018-02-14T21:00:57.337Z,8.53
2018-02-14T21:05:58.666Z,9.43
2018-02-14T21:11:00.052Z,9.67
2018-02-14T21:16:01.444Z,10.00
2018-02-14T21:21:03.568Z,8.17
2018-02-14T21:26:05.699Z,9.83
2018-02-14T21:31:07.506Z,9.50
2018-02-14T21:36:09.095Z,9.27
2018-02-14T21:41:10.444Z,8.70
2018-02-14T21:46:11.792Z,10.30
2018-02-14T21:51:13.142Z,8.60
2018-02-14T21:56:14.596Z,9.03
2018-02-14T22:01:15.934Z,8.90
2018-02-14T22:06:17.273Z,8.70
2018-02-14T22:11:18.655Z,9.00
2018-02-14T22:16:20.095Z,8.60
2018-02-14T22:21:22.196Z,9.27
2018-02-14T22:26:23.631Z,8.80
2018-02-14T22:31:24.976Z,8.53
2018-02-14T22:36:27.111Z,9.20
2018-02-14T22:41:29.228Z,9.10
2018-02-14T22:46:30.594Z,8.80
2018-02-14T22:51:31.963Z,7.90
2018-02-14T22:56:33.315Z,8.40
2018-02-14T23:01:34.911Z,8.97
2018-02-14T23:06:36.290Z,7.97
2018-02-14T23:11:37.690Z,9.10
2018-02-14T23:16:39.222Z,7.90
2018-02-14T23:21:40.537Z,7.40
2018-02-14T23:26:42.610Z,8.20
2018-02-14T23:31:44.045Z,8.00
2018-02-14T23:36:45.390Z,7.80
2018-02-14T23:41:47.012Z,8.30
2018-02-14T23:46:49.070Z,7.13
2018-02-14T23:51:50.384Z,7.27
2018-02-14T23:56:51.886Z,7.53
